createdAt,value
2019-03-16T00:01:57.352Z,1.30
2019-03-16T00:04:23.297Z,1.27
2019-03-16T00:06:51.771Z,1.20
2019-03-16T00:09:20.198Z,1.10
2019-03-16T00:11:48.704Z,1.10
2019-03-16T00:14:17.271Z,1.20
2019-03-16T00:16:45.704Z,1.00
2019-03-16T00:19:14.132Z,1.00
2019-03-16T00:21:42.667Z,1.20
2019-03-16T00:24:11.095Z,1.30
2019-03-16T00:26:39.521Z,1.37
2019-03-16T00:29:07.997Z,1.07
2019-03-16T00:31:36.431Z,1.80
2019-03-16T00:34:05.297Z,1.00
2019-03-16T00:36:33.757Z,1.00
2019-03-16T00:39:02.193Z,1.10
2019-03-16T00:41:30.621Z,1.00
2019-03-16T00:43:59.083Z,0.80
2019-03-16T00:46:27.531Z,1.47
2019-03-16T00:48:56.039Z,1.00
2019-03-16T00:51:24.493Z,1.10
2019-03-16T00:53:52.922Z,1.00
2019-03-16T00:56:21.347Z,0.97
2019-03-16T00:58:49.816Z,0.90
2019-03-16T01:01:18.534Z,1.20
2019-03-16T01:03:46.958Z,1.10
2019-03-16T01:06:15.470Z,1.40
2019-03-16T01:08:43.901Z,0.93
2019-03-16T01:11:12.335Z,1.17
2019-03-16T01:13:40.861Z,1.30
2019-03-16T01:16:09.290Z,1.00
2019-03-16T01:18:37.742Z,1.00
2019-03-16T01:21:06.327Z,0.90
2019-03-16T01:23:34.752Z,0.90
2019-03-16T01:26:03.252Z,0.70
2019-03-16T01:28:31.814Z,2.37
2019-03-16T01:31:00.563Z,0.80
2019-03-16T01:33:28.989Z,0.90
2019-03-16T01:35:57.481Z,0.87
2019-03-16T01:38:26.223Z,0.70
2019-03-16T01:40:54.657Z,1.80
2019-03-16T01:43:23.115Z,0.87
2019-03-16T01:45:51.557Z,0.67
2019-03-16T01:48:20.262Z,0.73
2019-03-16T01:50:48.718Z,0.80
2019-03-16T01:53:17.142Z,0.70
2019-03-16T01:55:45.570Z,1.10
2019-03-16T01:58:14.158Z,0.83
2019-03-16T02:00:42.571Z,1.13
2019-03-16T02:03:11.001Z,0.67
2019-03-16T02:05:39.765Z,0.60
2019-03-16T02:08:08.450Z,0.97
2019-03-16T02:10:37.137Z,1.10
2019-03-16T02:13:05.756Z,0.83
2019-03-16T02:15:34.183Z,0.80
2019-03-16T02:18:02.615Z,0.80
2019-03-16T02:20:31.237Z,0.80
2019-03-16T02:22:59.950Z,0.70
2019-03-16T02:25:28.381Z,0.73
2019-03-16T02:27:57.176Z,0.87
2019-03-16T02:30:25.607Z,0.80
2019-03-16T02:33:11.019Z,0.80
2019-03-16T02:35:24.303Z,0.70
2019-03-16T02:37:52.731Z,0.80
2019-03-16T02:40:21.174Z,0.90
2019-03-16T02:42:49.761Z,0.90
2019-03-16T02:45:18.258Z,1.07
2019-03-16T02:47:46.684Z,0.80
2019-03-16T02:50:15.217Z,0.80
2019-03-16T02:52:43.661Z,0.90
2019-03-16T02:55:12.155Z,1.73
2019-03-16T02:57:40.642Z,0.97
2019-03-16T03:00:13.077Z,1.00
2019-03-16T03:02:41.572Z,0.80
2019-03-16T03:05:10.482Z,0.73
2019-03-16T03:07:38.984Z,0.70
2019-03-16T03:10:10.727Z,0.87
2019-03-16T03:12:39.204Z,1.07
2019-03-16T03:15:09.091Z,1.33
2019-03-16T03:17:37.524Z,0.77
2019-03-16T03:20:08.069Z,0.70
2019-03-16T03:22:36.559Z,0.90
2019-03-16T03:25:05.715Z,0.80
2019-03-16T03:27:34.173Z,0.80
2019-03-16T03:30:02.689Z,1.17
2019-03-16T03:32:31.209Z,1.83
2019-03-16T03:34:59.720Z,0.80
2019-03-16T03:37:28.142Z,0.77
2019-03-16T03:39:56.571Z,0.83
2019-03-16T03:42:25.066Z,1.00
2019-03-16T03:44:54.067Z,1.33
2019-03-16T03:47:22.526Z,0.90
2019-03-16T03:49:50.979Z,0.57
2019-03-16T03:52:19.408Z,0.80
2019-03-16T03:54:48.262Z,0.90
2019-03-16T03:57:16.814Z,0.80
2019-03-16T03:59:45.321Z,1.67
2019-03-16T04:02:13.746Z,0.80
2019-03-16T04:04:42.222Z,0.90
2019-03-16T04:07:10.975Z,1.17
2019-03-16T04:09:39.511Z,0.90
2019-03-16T04:12:07.972Z,0.80
2019-03-16T04:14:36.400Z,1.00
2019-03-16T04:17:04.917Z,1.00
2019-03-16T04:19:33.635Z,0.90
2019-03-16T04:22:02.425Z,0.90
2019-03-16T04:24:31.316Z,1.10
2019-03-16T04:27:14.990Z,1.13
2019-03-16T04:29:30.106Z,1.03
2019-03-16T04:31:58.611Z,0.87
2019-03-16T04:34:29.680Z,1.00
2019-03-16T04:36:57.263Z,0.90
2019-03-16T04:39:25.716Z,2.20
2019-03-16T04:41:54.239Z,1.00
2019-03-16T04:44:22.670Z,1.10
2019-03-16T04:46:51.366Z,1.03
2019-03-16T04:49:19.819Z,1.30
2019-03-16T04:51:48.253Z,0.90
2019-03-16T04:54:16.676Z,1.00
2019-03-16T04:56:45.476Z,0.80
2019-03-16T04:59:13.926Z,0.90
2019-03-16T05:01:42.363Z,1.17
2019-03-16T05:04:10.890Z,1.00
2019-03-16T05:06:39.383Z,1.03
2019-03-16T05:09:07.811Z,3.10
2019-03-16T05:11:36.370Z,1.27
2019-03-16T05:14:04.938Z,0.83
2019-03-16T05:16:33.378Z,1.17
2019-03-16T05:19:01.841Z,1.00
2019-03-16T05:21:30.275Z,1.00
2019-03-16T05:23:58.706Z,1.23
2019-03-16T05:26:27.162Z,1.27
2019-03-16T05:28:55.599Z,1.00
2019-03-16T05:31:24.039Z,0.90
2019-03-16T05:33:52.538Z,1.07
2019-03-16T05:36:20.973Z,1.20
2019-03-16T05:38:49.675Z,0.97
2019-03-16T05:41:18.298Z,1.20
2019-03-16T05:43:46.722Z,1.73
2019-03-16T05:46:15.543Z,1.33
2019-03-16T05:48:44.265Z,1.20
2019-03-16T05:51:12.735Z,0.80
2019-03-16T05:53:41.171Z,1.10
2019-03-16T05:56:09.619Z,0.90
2019-03-16T05:58:38.053Z,1.00
2019-03-16T06:01:06.482Z,1.20
2019-03-16T06:03:35.234Z,0.90
2019-03-16T06:06:03.729Z,0.90
2019-03-16T06:08:32.165Z,0.90
2019-03-16T06:11:00.895Z,0.90
2019-03-16T06:13:29.325Z,0.97
2019-03-16T06:15:58.071Z,0.90
2019-03-16T06:18:26.538Z,0.97
2019-03-16T06:20:55.243Z,0.90
2019-03-16T06:23:23.679Z,1.40
2019-03-16T06:25:52.214Z,1.00
2019-03-16T06:28:20.638Z,0.90
2019-03-16T06:30:49.069Z,1.00
2019-03-16T06:33:17.522Z,0.80
2019-03-16T06:35:45.959Z,0.97
2019-03-16T06:38:14.391Z,0.87
2019-03-16T06:40:43.147Z,1.00
2019-03-16T06:43:11.652Z,0.93
2019-03-16T06:45:40.084Z,0.97
2019-03-16T06:48:08.598Z,0.90
2019-03-16T06:50:37.026Z,0.90
2019-03-16T06:53:05.459Z,1.00
2019-03-16T06:55:33.924Z,0.80
2019-03-16T06:58:02.348Z,0.90
2019-03-16T07:00:30.779Z,1.70
2019-03-16T07:02:59.451Z,0.90
2019-03-16T07:05:37.505Z,0.97
2019-03-16T07:07:58.144Z,0.97
2019-03-16T07:10:26.595Z,0.90
2019-03-16T07:12:55.030Z,1.00
2019-03-16T07:15:23.477Z,0.90
2019-03-16T07:17:53.167Z,0.90
2019-03-16T07:20:21.636Z,1.23
2019-03-16T07:22:50.110Z,0.80
2019-03-16T07:25:18.589Z,1.03
2019-03-16T07:27:47.285Z,0.90
2019-03-16T07:30:15.944Z,0.80
2019-03-16T07:32:44.398Z,1.30
2019-03-16T07:35:12.912Z,1.00
2019-03-16T07:37:41.360Z,0.80
2019-03-16T07:40:11.565Z,1.00
2019-03-16T07:42:40.550Z,2.30
2019-03-16T07:45:10.321Z,0.97
2019-03-16T07:47:38.791Z,0.90
2019-03-16T07:50:09.454Z,0.83
2019-03-16T07:52:37.989Z,0.83
2019-03-16T07:55:07.178Z,1.80
2019-03-16T07:57:40.472Z,1.00
2019-03-16T08:00:08.940Z,0.97
2019-03-16T08:02:37.785Z,1.10
2019-03-16T08:05:17.397Z,1.93
2019-03-16T08:07:36.709Z,0.90
2019-03-16T08:10:08.193Z,1.03
2019-03-16T08:12:36.874Z,1.30
2019-03-16T08:15:07.351Z,0.90
2019-03-16T08:17:35.817Z,1.27
2019-03-16T08:20:06.501Z,1.00
2019-03-16T08:22:34.927Z,0.73
2019-03-16T08:25:03.640Z,1.43
2019-03-16T08:27:32.185Z,0.97
2019-03-16T08:30:00.951Z,1.07
2019-03-16T08:32:29.428Z,0.97
2019-03-16T08:35:00.270Z,1.10
2019-03-16T08:37:29.690Z,1.10
2019-03-16T08:39:58.374Z,1.00
2019-03-16T08:42:26.827Z,1.00
2019-03-16T08:44:55.326Z,0.90
2019-03-16T08:47:23.871Z,1.10
2019-03-16T08:49:52.301Z,1.10
2019-03-16T08:52:20.734Z,1.00
2019-03-16T08:54:49.204Z,2.37
2019-03-16T08:57:17.983Z,1.10
2019-03-16T08:59:46.482Z,3.80
2019-03-16T09:02:15.941Z,1.10
2019-03-16T09:04:44.413Z,2.83
2019-03-16T09:07:12.912Z,1.10
2019-03-16T09:09:41.628Z,1.90
2019-03-16T09:12:10.142Z,1.00
2019-03-16T09:14:39.192Z,1.53
2019-03-16T09:17:09.096Z,4.63
2019-03-16T09:19:37.855Z,1.90
2019-03-16T09:22:06.311Z,1.00
2019-03-16T09:24:34.742Z,1.00
2019-03-16T09:27:03.179Z,1.10
2019-03-16T09:29:31.714Z,1.17
2019-03-16T09:32:00.224Z,1.30
2019-03-16T09:34:28.671Z,1.10
2019-03-16T09:36:57.226Z,1.20
2019-03-16T09:39:25.654Z,1.67
2019-03-16T09:41:54.163Z,1.20
2019-03-16T09:44:22.630Z,1.07
2019-03-16T09:46:51.080Z,1.00
2019-03-16T09:49:19.519Z,1.30
2019-03-16T09:51:48.491Z,1.10
2019-03-16T09:54:16.934Z,1.10
2019-03-16T09:56:45.730Z,1.00
2019-03-16T09:59:14.251Z,1.07
2019-03-16T10:01:42.685Z,1.10
2019-03-16T10:04:11.116Z,1.90
2019-03-16T10:06:39.587Z,1.40
2019-03-16T10:09:08.279Z,1.00
2019-03-16T10:11:36.701Z,1.03
2019-03-16T10:14:05.386Z,1.07
2019-03-16T10:16:33.826Z,1.53
2019-03-16T10:19:02.272Z,1.37
2019-03-16T10:21:30.739Z,1.10
2019-03-16T10:23:59.169Z,1.20
2019-03-16T10:26:27.606Z,1.00
2019-03-16T10:28:56.090Z,1.30
2019-03-16T10:31:24.630Z,1.10
2019-03-16T10:33:53.076Z,1.30
2019-03-16T10:36:21.533Z,1.10
2019-03-16T10:38:49.969Z,1.13
2019-03-16T10:41:18.454Z,1.00
2019-03-16T10:43:46.934Z,1.27
2019-03-16T10:46:15.370Z,1.13
2019-03-16T10:48:43.897Z,1.10
2019-03-16T10:51:12.474Z,1.23
2019-03-16T10:53:41.036Z,1.10
2019-03-16T10:56:09.913Z,1.13
2019-03-16T10:58:38.660Z,1.33
2019-03-16T11:01:07.283Z,1.20
2019-03-16T11:03:36.415Z,2.20
2019-03-16T11:06:06.777Z,1.00
2019-03-16T11:08:35.223Z,1.20
2019-03-16T11:11:03.756Z,1.20
2019-03-16T11:13:32.262Z,1.10
2019-03-16T11:16:00.700Z,1.20
2019-03-16T11:18:29.358Z,1.10
2019-03-16T11:20:57.792Z,1.30
2019-03-16T11:23:26.225Z,1.53
2019-03-16T11:25:54.712Z,1.50
2019-03-16T11:28:23.142Z,1.83
2019-03-16T11:30:51.574Z,1.00
2019-03-16T11:33:20.435Z,1.17
2019-03-16T11:35:48.869Z,1.00
2019-03-16T11:38:17.297Z,1.17
2019-03-16T11:40:46.092Z,0.90
2019-03-16T11:43:14.882Z,1.47
2019-03-16T11:45:43.665Z,1.70
2019-03-16T11:48:12.307Z,1.50
2019-03-16T11:50:40.743Z,1.10
2019-03-16T11:53:09.450Z,1.07
2019-03-16T11:55:37.977Z,1.00
2019-03-16T11:58:06.436Z,1.87
2019-03-16T12:00:34.939Z,0.97
2019-03-16T12:03:03.394Z,1.10
2019-03-16T12:05:32.178Z,1.77
2019-03-16T12:08:00.631Z,0.90
2019-03-16T12:10:30.365Z,0.90
2019-03-16T12:12:58.896Z,0.87
2019-03-16T12:15:27.333Z,0.80
2019-03-16T12:17:55.802Z,0.80
2019-03-16T12:20:24.239Z,1.00
2019-03-16T12:22:52.686Z,0.80
2019-03-16T12:25:21.287Z,0.80
2019-03-16T12:27:49.797Z,0.80
2019-03-16T12:30:18.300Z,1.03
2019-03-16T12:32:46.926Z,0.90
2019-03-16T12:35:15.363Z,1.13
2019-03-16T12:37:43.900Z,0.90
2019-03-16T12:40:14.593Z,1.00
2019-03-16T12:42:43.214Z,0.70
2019-03-16T12:45:15.478Z,2.70
2019-03-16T12:47:43.954Z,0.90
2019-03-16T12:50:12.711Z,1.00
2019-03-16T12:52:42.617Z,0.80
2019-03-16T12:55:12.328Z,0.90
2019-03-16T12:57:40.755Z,0.90
2019-03-16T13:00:20.018Z,0.70
2019-03-16T13:02:48.593Z,0.90
2019-03-16T13:05:17.090Z,0.83
2019-03-16T13:07:45.637Z,1.23
2019-03-16T13:10:15.605Z,1.30
2019-03-16T13:12:44.620Z,0.70
2019-03-16T13:15:13.222Z,0.80
2019-03-16T13:49:43.156Z,0.80
2019-03-16T13:52:12.262Z,0.70
2019-03-16T13:54:41.207Z,0.60
2019-03-16T13:57:09.645Z,0.90
2019-03-16T13:59:38.206Z,1.10
2019-03-16T14:02:06.711Z,0.80
2019-03-16T14:04:35.490Z,1.17
2019-03-16T14:07:04.140Z,1.00
2019-03-16T14:09:32.638Z,0.73
2019-03-16T14:12:01.702Z,0.90
2019-03-16T14:14:30.178Z,0.80
2019-03-16T14:16:58.712Z,0.70
2019-03-16T14:19:27.138Z,0.80
2019-03-16T14:21:55.594Z,0.87
2019-03-16T14:24:24.310Z,0.97
2019-03-16T14:26:53.020Z,0.90
2019-03-16T14:29:21.494Z,0.90
2019-03-16T14:31:49.930Z,1.37
2019-03-16T14:34:18.924Z,0.70
2019-03-16T14:36:47.739Z,1.70
2019-03-16T14:39:16.249Z,2.07
2019-03-16T14:41:44.762Z,0.90
2019-03-16T14:44:13.350Z,1.00
2019-03-16T14:46:41.782Z,1.03
2019-03-16T14:49:11.147Z,0.80
2019-03-16T14:51:39.633Z,1.00
2019-03-16T14:54:08.068Z,1.30
2019-03-16T14:56:36.507Z,1.23
2019-03-16T14:59:05.235Z,1.23
2019-03-16T15:01:34.304Z,0.87
2019-03-16T15:04:02.746Z,1.17
2019-03-16T15:06:31.362Z,1.03
2019-03-16T15:09:00.459Z,0.73
2019-03-16T15:11:28.993Z,1.20
2019-03-16T15:13:57.787Z,0.90
2019-03-16T15:16:26.577Z,1.80
2019-03-16T15:18:56.853Z,1.00
2019-03-16T15:21:25.310Z,1.30
2019-03-16T15:23:54.025Z,1.00
2019-03-16T15:26:23.446Z,1.13
2019-03-16T15:28:55.178Z,0.90
2019-03-16T15:31:22.802Z,1.07
2019-03-16T15:33:51.439Z,1.30
2019-03-16T15:36:20.076Z,1.50
2019-03-16T15:38:48.505Z,1.60
2019-03-16T15:41:16.966Z,1.07
2019-03-16T15:43:45.431Z,1.00
2019-03-16T15:46:14.181Z,1.00
2019-03-16T15:48:42.618Z,1.17
2019-03-16T15:51:11.590Z,1.00
2019-03-16T15:53:40.044Z,1.20
2019-03-16T15:56:08.774Z,1.07
2019-03-16T15:58:40.561Z,1.10
2019-03-16T16:01:11.070Z,0.80
2019-03-16T16:03:46.374Z,0.80
2019-03-16T16:06:16.190Z,0.93
2019-03-16T16:08:44.706Z,1.07
2019-03-16T16:11:13.217Z,0.70
2019-03-16T16:13:41.768Z,0.83
2019-03-16T16:16:10.206Z,0.90
2019-03-16T16:18:38.630Z,1.20
2019-03-16T16:21:07.104Z,1.10
2019-03-16T16:23:35.895Z,1.20
2019-03-16T16:26:04.505Z,0.93
2019-03-16T16:28:33.153Z,1.20
2019-03-16T16:31:01.652Z,1.00
2019-03-16T16:33:30.162Z,1.40
2019-03-16T16:35:58.768Z,1.10
2019-03-16T16:38:27.887Z,1.10
2019-03-16T16:40:56.494Z,1.27
2019-03-16T16:43:25.047Z,1.43
2019-03-16T16:45:55.584Z,0.90
2019-03-16T16:48:24.246Z,13.13
2019-03-16T16:50:52.866Z,6.00
2019-03-16T16:53:21.715Z,1.10
2019-03-16T16:55:50.146Z,0.90
2019-03-16T16:58:18.723Z,1.20
2019-03-16T17:00:47.174Z,1.17
2019-03-16T17:03:15.609Z,1.17
2019-03-16T17:05:44.275Z,0.90
2019-03-16T17:08:12.956Z,1.30
2019-03-16T17:10:41.828Z,1.00
2019-03-16T17:13:10.355Z,0.93
2019-03-16T17:15:38.802Z,1.10
2019-03-16T17:18:07.240Z,1.97
2019-03-16T17:20:35.814Z,1.20
2019-03-16T17:23:04.430Z,2.07
2019-03-16T17:25:32.946Z,1.77
2019-03-16T17:28:01.425Z,2.27
2019-03-16T17:30:32.429Z,2.10
2019-03-16T17:33:00.878Z,2.33
2019-03-16T17:35:29.417Z,2.00
2019-03-16T17:37:57.857Z,1.80
2019-03-16T17:40:26.631Z,3.20
2019-03-16T17:42:55.168Z,4.30
2019-03-16T17:45:23.674Z,5.63
2019-03-16T17:47:52.111Z,3.80
2019-03-16T17:50:20.651Z,4.10
2019-03-16T17:52:49.102Z,1.87
2019-03-16T17:55:18.714Z,1.37
2019-03-16T17:57:47.202Z,1.13
2019-03-16T18:00:16.659Z,0.97
2019-03-16T18:02:51.270Z,1.10
2019-03-16T18:05:15.456Z,2.87
2019-03-16T18:07:44.342Z,1.10
2019-03-16T18:10:14.219Z,1.00
2019-03-16T18:12:43.174Z,2.23
2019-03-16T18:15:13.048Z,1.43
2019-03-16T18:17:41.494Z,1.00
2019-03-16T18:20:17.912Z,1.30
2019-03-16T18:22:47.420Z,1.03
2019-03-16T18:25:16.154Z,1.07
2019-03-16T18:27:44.767Z,0.90
2019-03-16T18:30:16.694Z,1.33
2019-03-16T18:32:45.119Z,1.00
2019-03-16T18:35:13.895Z,2.00
2019-03-16T18:37:42.330Z,1.30
2019-03-16T18:40:12.593Z,0.87
2019-03-16T18:42:41.043Z,1.40
2019-03-16T18:45:21.788Z,1.20
2019-03-16T18:47:50.239Z,1.47
2019-03-16T18:50:18.671Z,1.53
2019-03-16T18:52:47.202Z,1.90
2019-03-16T18:55:15.986Z,1.47
2019-03-16T18:57:44.418Z,1.80
2019-03-16T19:00:16.987Z,1.60
2019-03-16T19:02:45.527Z,1.30
2019-03-16T19:05:14.437Z,1.47
2019-03-16T19:07:43.229Z,1.40
2019-03-16T19:10:16.729Z,1.23
2019-03-16T19:12:45.809Z,1.30
2019-03-16T19:15:18.144Z,2.00
2019-03-16T19:17:57.977Z,1.40
2019-03-16T19:20:17.656Z,1.73
2019-03-16T19:22:46.389Z,1.60
2019-03-16T19:25:21.138Z,2.03
2019-03-16T19:27:49.629Z,1.37
2019-03-16T19:30:18.698Z,1.67
2019-03-16T19:32:47.472Z,1.83
2019-03-16T19:35:16.014Z,1.40
2019-03-16T19:37:44.521Z,1.77
2019-03-16T19:40:15.670Z,1.50
2019-03-16T19:42:46.800Z,1.57
2019-03-16T19:45:14.864Z,1.87
2019-03-16T19:47:43.537Z,1.80
2019-03-16T19:50:14.184Z,1.87
2019-03-16T19:52:42.680Z,1.80
2019-03-16T19:55:12.186Z,1.60
2019-03-16T19:57:40.688Z,1.97
2019-03-16T20:00:12.526Z,1.40
2019-03-16T20:02:49.860Z,1.53
2019-03-16T20:05:12.081Z,1.50
2019-03-16T20:07:40.931Z,1.30
2019-03-16T20:10:20.358Z,1.40
2019-03-16T20:12:48.832Z,1.37
2019-03-16T20:15:17.407Z,1.37
2019-03-16T20:17:46.072Z,1.40
2019-03-16T20:20:15.577Z,1.43
2019-03-16T20:22:45.216Z,1.47
2019-03-16T20:25:14.194Z,1.40
2019-03-16T20:27:42.632Z,1.67
2019-03-16T20:30:13.468Z,2.87
2019-03-16T20:32:42.152Z,3.30
2019-03-16T20:35:10.673Z,2.90
2019-03-16T20:37:39.400Z,4.73
2019-03-16T20:40:12.969Z,11.17
2019-03-16T20:42:41.682Z,13.20
2019-03-16T20:45:11.401Z,14.50
2019-03-16T20:47:40.884Z,10.60
2019-03-16T20:50:12.100Z,7.33
2019-03-16T20:52:40.803Z,5.00
2019-03-16T20:55:10.297Z,5.43
2019-03-16T20:57:38.808Z,3.07
2019-03-16T21:00:17.280Z,3.43
2019-03-16T21:02:45.856Z,2.30
2019-03-16T21:05:14.562Z,2.37
2019-03-16T21:07:43.528Z,2.90
2019-03-16T21:10:12.872Z,3.40
2019-03-16T21:12:42.410Z,2.10
2019-03-16T21:15:13.418Z,1.83
2019-03-16T21:17:41.864Z,2.03
2019-03-16T21:20:14.632Z,2.10
2019-03-16T21:22:43.324Z,1.97
2019-03-16T21:25:13.568Z,1.57
2019-03-16T21:27:42.002Z,2.20
2019-03-16T21:30:22.097Z,1.80
2019-03-16T21:32:50.928Z,1.50
2019-03-16T21:35:19.360Z,1.53
2019-03-16T21:37:47.818Z,1.60
2019-03-16T21:40:16.950Z,1.60
2019-03-16T21:42:45.686Z,1.70
2019-03-16T21:45:14.702Z,1.83
2019-03-16T21:47:43.368Z,1.90
2019-03-16T21:50:13.455Z,1.70
2019-03-16T21:52:44.498Z,1.40
2019-03-16T21:55:13.008Z,1.90
2019-03-16T21:57:41.582Z,1.77
2019-03-16T22:00:12.374Z,1.90
2019-03-16T22:02:40.816Z,1.90
2019-03-16T22:05:10.616Z,2.00
2019-03-16T22:07:39.290Z,1.80
2019-03-16T22:10:12.259Z,2.13
2019-03-16T22:12:41.030Z,2.00
2019-03-16T22:15:12.272Z,2.30
2019-03-16T22:17:40.701Z,2.20
2019-03-16T22:20:11.847Z,2.37
2019-03-16T22:22:40.544Z,2.53
2019-03-16T22:25:10.210Z,2.03
2019-03-16T22:27:38.646Z,2.07
2019-03-16T22:30:10.342Z,2.33
2019-03-16T22:32:38.773Z,1.80
2019-03-16T22:35:09.142Z,1.70
2019-03-16T22:37:38.208Z,2.10
2019-03-16T22:40:09.697Z,1.83
2019-03-16T22:42:38.193Z,1.70
2019-03-16T22:45:11.309Z,2.43
2019-03-16T22:47:39.765Z,1.67
2019-03-16T22:50:14.171Z,2.10
2019-03-16T22:52:43.137Z,1.70
2019-03-16T22:55:11.781Z,1.87
2019-03-16T22:57:40.484Z,1.80
2019-03-16T23:00:19.737Z,1.60
2019-03-16T23:02:48.426Z,1.80
2019-03-16T23:05:17.703Z,1.70
2019-03-16T23:07:47.010Z,1.73
2019-03-16T23:10:15.445Z,1.97
2019-03-16T23:12:44.183Z,1.60
2019-03-16T23:15:13.026Z,1.90
2019-03-16T23:17:41.453Z,1.90
2019-03-16T23:20:10.874Z,1.73
2019-03-16T23:22:39.494Z,1.70
2019-03-16T23:25:10.433Z,1.70
2019-03-16T23:27:38.867Z,1.70
2019-03-16T23:30:09.192Z,1.80
2019-03-16T23:32:37.611Z,1.73
2019-03-16T23:35:07.874Z,1.60
2019-03-16T23:37:36.425Z,1.87
2019-03-16T23:40:10.247Z,2.00
2019-03-16T23:42:38.818Z,1.70
2019-03-16T23:45:09.722Z,1.83
2019-03-16T23:47:38.148Z,3.80
2019-03-16T23:50:13.901Z,3.50
2019-03-16T23:52:42.377Z,3.70
2019-03-16T23:55:11.042Z,2.90
2019-03-16T23:57:39.469Z,2.03
